createdAt,value
2018-11-22T00:01:13.404Z,24.70
2018-11-22T00:04:02.183Z,23.27
2018-11-22T00:06:50.990Z,24.37
2018-11-22T00:09:39.760Z,25.77
2018-11-22T00:12:47.523Z,25.17
2018-11-22T00:15:36.321Z,26.80
2018-11-22T00:18:44.089Z,25.60
2018-11-22T00:21:51.863Z,22.30
2018-11-22T00:24:40.657Z,25.00
2018-11-22T00:27:48.434Z,24.50
2018-11-22T00:30:56.497Z,25.00
2018-11-22T00:34:04.241Z,22.20
2018-11-22T00:36:53.043Z,25.27
2018-11-22T00:39:41.817Z,24.10
2018-11-22T00:42:49.984Z,23.93
2018-11-22T00:45:38.788Z,22.90
2018-11-22T00:48:46.539Z,24.60
2018-11-22T00:51:35.397Z,25.47
2018-11-22T00:54:24.181Z,23.98
2018-11-22T00:57:12.985Z,22.47
2018-11-22T01:00:01.753Z,20.80
2018-11-22T01:02:50.694Z,20.20
2018-11-22T01:05:58.447Z,21.57
2018-11-22T01:08:47.229Z,23.60
2018-11-22T01:11:36.016Z,22.47
2018-11-22T01:14:24.799Z,24.30
2018-11-22T01:17:13.646Z,22.77
2018-11-22T01:20:21.420Z,22.10
2018-11-22T01:23:29.164Z,19.97
2018-11-22T01:26:17.960Z,19.13
2018-11-22T01:29:06.755Z,19.57
2018-11-22T01:31:55.562Z,22.27
2018-11-22T01:34:44.379Z,21.60
2018-11-22T01:37:33.434Z,21.20
2018-11-22T01:40:23.617Z,19.80
2018-11-22T01:43:12.397Z,20.90
2018-11-22T01:46:01.211Z,19.60
2018-11-22T01:48:49.993Z,22.63
2018-11-22T01:51:38.764Z,20.63
2018-11-22T01:54:27.623Z,25.17
2018-11-22T01:57:16.393Z,20.00
2018-11-22T02:00:07.865Z,22.10
2018-11-22T02:02:56.622Z,19.97
2018-11-22T02:05:45.407Z,19.73
2018-11-22T02:08:34.187Z,20.30
2018-11-22T02:11:42.306Z,20.67
2018-11-22T02:14:31.079Z,27.27
2018-11-22T02:17:19.910Z,21.27
2018-11-22T02:20:10.863Z,22.10
2018-11-22T02:22:59.952Z,20.40
2018-11-22T02:25:41.272Z,23.50
2018-11-22T02:28:30.361Z,20.00
2018-11-22T02:31:19.474Z,19.80
2018-11-22T02:34:08.350Z,20.35
2018-11-22T02:36:57.120Z,18.50
2018-11-22T02:39:45.914Z,21.57
2018-11-22T02:42:34.741Z,22.77
2018-11-22T02:45:42.812Z,22.00
2018-11-22T02:48:31.579Z,18.90
2018-11-22T02:51:20.871Z,23.33
2018-11-22T02:54:10.049Z,22.67
2018-11-22T02:56:59.151Z,23.27
2018-11-22T02:59:48.002Z,20.23
2018-11-22T03:02:36.778Z,20.60
2018-11-22T03:05:25.552Z,21.00
2018-11-22T03:08:14.885Z,22.37
2018-11-22T03:11:03.902Z,23.40
2018-11-22T03:13:52.946Z,22.80
2018-11-22T03:16:42.045Z,22.57
2018-11-22T03:19:31.135Z,25.30
2018-11-22T03:22:19.949Z,22.33
2018-11-22T03:25:10.209Z,21.50
2018-11-22T03:27:58.974Z,22.00
2018-11-22T03:30:47.776Z,24.20
2018-11-22T03:33:36.579Z,22.87
2018-11-22T03:36:25.357Z,24.10
2018-11-22T03:39:14.204Z,23.43
2018-11-22T03:42:03.016Z,23.07
2018-11-22T03:44:51.856Z,23.20
2018-11-22T03:47:40.720Z,23.22
2018-11-22T03:50:30.034Z,22.43
2018-11-22T03:53:18.871Z,23.45
2018-11-22T03:56:07.669Z,22.93
2018-11-22T03:58:56.454Z,19.90
2018-11-22T04:01:45.288Z,20.07
2018-11-22T04:04:34.045Z,27.50
2018-11-22T04:07:23.150Z,21.73
2018-11-22T04:10:14.701Z,21.07
2018-11-22T04:13:03.482Z,22.80
2018-11-22T04:15:52.257Z,21.37
2018-11-22T04:18:41.105Z,20.70
2018-11-22T04:21:34.879Z,24.37
2018-11-22T04:24:23.693Z,22.73
2018-11-22T04:27:12.476Z,19.50
2018-11-22T04:30:01.575Z,24.17
2018-11-22T04:32:50.599Z,20.40
2018-11-22T04:35:39.412Z,21.30
2018-11-22T04:38:28.197Z,22.82
2018-11-22T04:41:17.000Z,21.57
2018-11-22T04:44:05.917Z,24.00
2018-11-22T04:47:13.689Z,21.57
2018-11-22T04:50:02.520Z,24.07
2018-11-22T04:52:51.282Z,23.10
2018-11-22T04:55:40.130Z,21.53
2018-11-22T04:58:28.915Z,21.30
2018-11-22T05:01:17.718Z,23.07
2018-11-22T05:04:06.502Z,22.23
2018-11-22T05:06:55.276Z,22.43
2018-11-22T05:09:44.088Z,22.50
2018-11-22T05:12:32.856Z,19.57
2018-11-22T05:15:23.063Z,19.73
2018-11-22T05:18:20.062Z,21.30
2018-11-22T05:21:08.864Z,21.57
2018-11-22T05:23:57.634Z,18.70
2018-11-22T05:26:46.522Z,20.67
2018-11-22T05:29:35.309Z,17.70
2018-11-22T05:32:24.122Z,18.30
2018-11-22T05:35:13.855Z,17.80
2018-11-22T05:38:02.651Z,18.27
2018-11-22T05:40:51.429Z,18.13
2018-11-22T05:43:40.243Z,18.80
2018-11-22T05:46:29.014Z,16.43
2018-11-22T05:49:18.149Z,19.40
2018-11-22T05:52:07.747Z,17.75
2018-11-22T05:54:56.527Z,19.67
2018-11-22T05:57:45.759Z,15.97
2018-11-22T06:00:34.574Z,21.07
2018-11-22T06:03:23.362Z,16.03
2018-11-22T06:06:12.144Z,15.97
2018-11-22T06:09:00.910Z,16.27
2018-11-22T06:11:49.731Z,15.50
2018-11-22T06:14:38.516Z,17.97
2018-11-22T06:17:27.728Z,18.53
2018-11-22T06:20:18.064Z,15.50
2018-11-22T06:23:06.863Z,17.10
2018-11-22T06:25:55.660Z,17.27
2018-11-22T06:28:44.486Z,16.13
2018-11-22T06:31:33.948Z,16.27
2018-11-22T06:34:22.766Z,18.57
2018-11-22T06:37:11.878Z,18.87
2018-11-22T06:40:00.703Z,15.87
2018-11-22T06:42:50.905Z,19.80
2018-11-22T06:45:39.735Z,16.50
2018-11-22T06:48:28.582Z,14.80
2018-11-22T06:51:36.345Z,15.90
2018-11-22T06:54:25.161Z,19.93
2018-11-22T06:57:14.278Z,16.83
2018-11-22T07:00:03.051Z,14.90
2018-11-22T07:02:53.152Z,17.23
2018-11-22T07:05:41.945Z,17.70
2018-11-22T07:08:30.752Z,16.07
2018-11-22T07:11:19.864Z,17.10
2018-11-22T07:14:09.034Z,16.17
2018-11-22T07:16:57.806Z,18.40
2018-11-22T07:19:46.900Z,15.20
2018-11-22T07:22:35.725Z,16.97
2018-11-22T07:25:25.386Z,18.73
2018-11-22T07:28:14.238Z,17.10
2018-11-22T07:31:03.460Z,14.20
2018-11-22T07:33:52.367Z,16.30
2018-11-22T07:36:41.148Z,17.83
2018-11-22T07:39:30.656Z,16.80
2018-11-22T07:42:19.445Z,15.23
2018-11-22T07:45:10.884Z,16.40
2018-11-22T07:48:00.687Z,16.37
2018-11-22T07:50:49.512Z,17.60
2018-11-22T07:53:38.308Z,17.05
2018-11-22T07:56:27.112Z,17.90
2018-11-22T07:59:15.917Z,17.80
2018-11-22T08:02:05.130Z,17.37
2018-11-22T08:04:54.275Z,15.43
2018-11-22T08:07:43.612Z,14.80
2018-11-22T08:10:32.371Z,16.87
2018-11-22T08:13:21.178Z,16.40
2018-11-22T08:16:09.973Z,17.40
2018-11-22T08:18:58.758Z,15.73
2018-11-22T08:22:06.597Z,14.57
2018-11-22T08:24:56.263Z,15.40
2018-11-22T08:27:44.955Z,15.78
2018-11-22T08:30:33.761Z,17.70
2018-11-22T08:33:22.530Z,15.10
2018-11-22T08:36:11.349Z,16.23
2018-11-22T08:39:00.144Z,15.67
2018-11-22T08:44:37.117Z,15.77
2018-11-22T08:47:25.972Z,16.07
2018-11-22T08:50:16.093Z,16.77
2018-11-22T08:53:05.475Z,15.90
2018-11-22T08:55:54.216Z,15.00
2018-11-22T08:58:43.027Z,15.73
2018-11-22T09:01:32.113Z,17.40
2018-11-22T09:04:13.934Z,18.80
2018-11-22T09:07:02.740Z,17.83
2018-11-22T09:10:10.470Z,17.20
2018-11-22T09:13:00.233Z,15.70
2018-11-22T09:15:49.373Z,16.40
2018-11-22T09:18:38.161Z,15.70
2018-11-22T09:21:26.927Z,16.83
2018-11-22T09:24:15.708Z,16.40
2018-11-22T09:27:04.872Z,17.07
2018-11-22T09:29:53.668Z,16.50
2018-11-22T09:32:43.189Z,15.50
2018-11-22T09:35:33.337Z,14.57
2018-11-22T09:38:22.133Z,16.50
2018-11-22T09:41:10.924Z,17.00
2018-11-22T09:43:59.741Z,14.40
2018-11-22T09:46:48.834Z,16.33
2018-11-22T09:49:37.656Z,15.80
2018-11-22T09:52:26.430Z,15.10
2018-11-22T09:55:15.682Z,15.37
2018-11-22T09:58:04.464Z,15.00
2018-11-22T10:00:53.234Z,14.43
2018-11-22T10:03:42.300Z,19.20
2018-11-22T10:06:31.120Z,36.90
2018-11-22T10:09:19.963Z,23.13
2018-11-22T10:12:09.282Z,19.00
2018-11-22T10:14:58.106Z,24.50
2018-11-22T10:17:46.878Z,14.00
2018-11-22T10:20:35.971Z,15.07
2018-11-22T10:23:24.805Z,13.70
2018-11-22T10:26:13.582Z,14.30
2018-11-22T10:29:02.388Z,15.80
2018-11-22T10:31:51.167Z,15.20
2018-11-22T10:34:39.975Z,15.23
2018-11-22T10:37:28.746Z,16.00
2018-11-22T10:40:36.779Z,13.60
2018-11-22T10:43:26.170Z,13.87
2018-11-22T10:46:14.977Z,14.57
2018-11-22T10:49:03.753Z,16.77
2018-11-22T10:51:52.532Z,13.40
2018-11-22T10:54:41.316Z,16.17
2018-11-22T10:57:30.176Z,15.60
2018-11-22T11:00:41.722Z,17.07
2018-11-22T11:03:49.487Z,15.50
2018-11-22T11:06:39.634Z,13.80
2018-11-22T11:09:28.397Z,15.57
2018-11-22T11:12:17.202Z,14.50
2018-11-22T11:15:06.453Z,15.30
2018-11-22T11:17:55.294Z,15.70
2018-11-22T11:20:44.078Z,16.57
2018-11-22T11:23:32.921Z,16.17
2018-11-22T11:26:21.879Z,16.70
2018-11-22T11:29:12.789Z,14.90
2018-11-22T11:31:59.727Z,14.30
2018-11-22T11:34:48.601Z,15.80
2018-11-22T11:37:37.389Z,15.10
2018-11-22T11:40:30.747Z,16.33
2018-11-22T11:43:19.517Z,16.77
2018-11-22T11:46:08.486Z,17.10
2018-11-22T11:48:57.314Z,18.30
2018-11-22T11:51:46.423Z,16.90
2018-11-22T11:54:35.220Z,19.57
2018-11-22T11:57:24.185Z,15.30
2018-11-22T12:00:51.299Z,15.70
2018-11-22T12:03:40.093Z,16.07
2018-11-22T12:06:28.888Z,15.77
2018-11-22T12:09:17.688Z,15.90
2018-11-22T12:12:06.483Z,17.10
2018-11-22T12:14:55.654Z,18.50
2018-11-22T12:17:44.458Z,16.07
2018-11-22T12:20:33.594Z,14.87
2018-11-22T12:23:22.408Z,18.97
2018-11-22T12:26:11.191Z,15.80
2018-11-22T12:28:59.973Z,17.63
2018-11-22T12:31:48.758Z,15.27
2018-11-22T12:34:56.557Z,16.30
2018-11-22T12:38:05.033Z,16.30
2018-11-22T12:40:53.885Z,17.17
2018-11-22T12:43:43.046Z,16.20
2018-11-22T12:46:32.122Z,17.40
2018-11-22T12:49:20.970Z,18.77
2018-11-22T12:52:09.763Z,17.33
2018-11-22T12:54:58.785Z,15.30
2018-11-22T12:57:47.571Z,16.17
2018-11-22T13:00:37.055Z,14.80
2018-11-22T13:03:25.888Z,18.63
2018-11-22T13:06:14.658Z,18.23
2018-11-22T13:09:03.533Z,15.58
2018-11-22T13:11:52.275Z,19.23
2018-11-22T13:14:41.045Z,18.47
2018-11-22T13:17:29.865Z,18.30
2018-11-22T13:20:20.135Z,20.23
2018-11-22T13:23:08.926Z,19.67
2018-11-22T13:25:57.703Z,18.07
2018-11-22T13:28:46.487Z,17.07
2018-11-22T13:31:35.299Z,17.67
2018-11-22T13:34:24.100Z,19.10
2018-11-22T13:37:12.862Z,18.53
2018-11-22T13:40:01.664Z,17.07
2018-11-22T13:42:51.261Z,18.10
2018-11-22T13:48:34.628Z,17.50
2018-11-22T13:51:23.686Z,19.13
2018-11-22T13:54:12.796Z,17.53
2018-11-22T13:57:01.934Z,17.10
2018-11-22T13:59:51.024Z,16.00
2018-11-22T14:02:40.438Z,15.87
2018-11-22T14:05:29.194Z,18.10
2018-11-22T14:08:17.986Z,16.03
2018-11-22T14:11:13.531Z,17.33
2018-11-22T14:13:55.940Z,17.90
2018-11-22T14:16:44.702Z,18.60
2018-11-22T14:19:33.482Z,19.80
2018-11-22T14:22:22.576Z,16.60
2018-11-22T14:25:12.530Z,17.20
2018-11-22T14:28:01.314Z,18.57
2018-11-22T14:30:50.107Z,15.87
2018-11-22T14:33:39.229Z,17.97
2018-11-22T14:36:27.994Z,17.53
2018-11-22T14:39:16.812Z,15.78
2018-11-22T14:42:05.799Z,16.57
2018-11-22T14:44:54.595Z,18.90
2018-11-22T14:47:44.736Z,17.40
2018-11-22T14:50:35.196Z,19.83
2018-11-22T14:53:24.005Z,18.07
2018-11-22T14:56:12.772Z,17.33
2018-11-22T14:59:01.863Z,19.40
2018-11-22T15:01:50.631Z,16.27
2018-11-22T15:04:39.747Z,15.50
2018-11-22T15:07:28.850Z,18.67
2018-11-22T15:10:17.873Z,17.70
2018-11-22T15:13:06.918Z,17.77
2018-11-22T15:15:55.714Z,18.63
2018-11-22T15:18:44.476Z,16.60
2018-11-22T15:21:33.262Z,20.57
2018-11-22T15:24:22.080Z,21.30
2018-11-22T15:27:11.253Z,21.03
2018-11-22T15:30:00.085Z,22.67
2018-11-22T15:32:48.873Z,25.60
2018-11-22T15:35:37.643Z,23.57
2018-11-22T15:38:26.441Z,19.93
2018-11-22T15:41:15.211Z,24.03
2018-11-22T15:44:04.292Z,24.35
2018-11-22T15:46:53.053Z,20.80
2018-11-22T15:49:41.830Z,20.30
2018-11-22T15:52:30.614Z,18.13
2018-11-22T15:55:21.136Z,22.17
2018-11-22T15:58:08.485Z,19.30
2018-11-22T16:00:57.275Z,19.73
2018-11-22T16:03:46.467Z,19.87
2018-11-22T16:06:35.275Z,18.57
2018-11-22T16:09:24.062Z,17.57
2018-11-22T16:12:12.861Z,20.47
2018-11-22T16:15:02.001Z,18.30
2018-11-22T16:17:50.799Z,19.13
2018-11-22T16:20:39.847Z,18.37
2018-11-22T16:23:28.651Z,21.00
2018-11-22T16:26:17.450Z,18.77
2018-11-22T16:29:06.397Z,17.20
2018-11-22T16:31:55.170Z,16.67
2018-11-22T16:34:43.963Z,18.50
2018-11-22T16:37:32.737Z,16.90
2018-11-22T16:40:22.905Z,17.87
2018-11-22T16:43:11.670Z,17.37
2018-11-22T16:46:00.464Z,16.37
2018-11-22T16:48:49.254Z,15.03
2018-11-22T16:51:38.043Z,17.97
2018-11-22T16:54:26.825Z,19.30
2018-11-22T16:57:15.964Z,17.63
2018-11-22T17:00:05.483Z,17.80
2018-11-22T17:02:55.390Z,18.57
2018-11-22T17:05:44.796Z,19.00
2018-11-22T17:08:33.564Z,18.13
2018-11-22T17:11:23.155Z,19.60
2018-11-22T17:14:11.954Z,18.00
2018-11-22T17:17:00.760Z,19.77
2018-11-22T17:19:49.591Z,20.13
2018-11-22T17:22:38.785Z,18.50
2018-11-22T17:25:28.836Z,22.37
2018-11-22T17:28:17.598Z,18.97
2018-11-22T17:31:06.402Z,18.20
2018-11-22T17:33:55.303Z,17.20
2018-11-22T17:36:44.101Z,13.90
2018-11-22T17:39:32.888Z,16.00
2018-11-22T17:42:21.675Z,16.17
2018-11-22T17:45:12.795Z,17.53
2018-11-22T17:48:01.743Z,16.77
2018-11-22T17:50:50.823Z,15.70
2018-11-22T17:53:39.600Z,17.90
2018-11-22T17:56:28.400Z,18.20
2018-11-22T17:59:17.182Z,21.00
2018-11-22T18:02:06.431Z,16.27
2018-11-22T18:04:55.205Z,17.10
2018-11-22T18:07:36.732Z,17.00
2018-11-22T18:10:27.030Z,15.50
2018-11-22T18:13:15.837Z,20.83
2018-11-22T18:16:04.704Z,23.80
2018-11-22T18:18:53.490Z,18.20
2018-11-22T18:21:42.289Z,17.83
2018-11-22T18:24:31.530Z,22.40
2018-11-22T18:27:20.696Z,17.00
2018-11-22T18:30:11.890Z,16.90
2018-11-22T18:33:02.282Z,18.50
2018-11-22T18:35:51.048Z,18.17
2018-11-22T18:38:39.862Z,18.03
2018-11-22T18:41:28.630Z,19.43
2018-11-22T18:44:17.424Z,21.07
2018-11-22T18:47:06.583Z,20.70
2018-11-22T18:49:55.403Z,18.20
2018-11-22T18:52:44.694Z,19.25
2018-11-22T18:55:33.497Z,18.17
2018-11-22T18:58:22.299Z,20.00
2018-11-22T19:01:04.417Z,15.97
2018-11-22T19:03:53.296Z,17.57
2018-11-22T19:06:42.208Z,18.33
2018-11-22T19:09:31.221Z,18.40
2018-11-22T19:12:20.177Z,19.60
2018-11-22T19:15:10.905Z,18.20
2018-11-22T19:17:59.793Z,19.20
2018-11-22T19:20:48.583Z,19.03
2018-11-22T19:23:37.390Z,16.82
2018-11-22T19:26:26.211Z,17.57
2018-11-22T19:29:14.995Z,18.47
2018-11-22T19:32:03.830Z,18.57
2018-11-22T19:34:52.704Z,19.73
2018-11-22T19:37:41.880Z,34.23
2018-11-22T19:40:34.999Z,18.13
2018-11-22T19:43:24.275Z,19.03
2018-11-22T19:46:14.032Z,19.40
2018-11-22T19:49:02.921Z,19.10
2018-11-22T19:51:52.307Z,22.13
2018-11-22T19:54:41.468Z,20.23
2018-11-22T19:57:30.312Z,17.10
2018-11-22T20:00:20.136Z,19.10
2018-11-22T20:03:10.197Z,19.07
2018-11-22T20:05:59.778Z,18.00
2018-11-22T20:08:49.611Z,24.17
2018-11-22T20:11:38.972Z,18.60
2018-11-22T20:14:28.601Z,25.43
2018-11-22T20:17:18.359Z,21.70
2018-11-22T20:20:08.924Z,20.27
2018-11-22T20:22:58.775Z,21.67
2018-11-22T20:25:48.864Z,20.03
2018-11-22T20:28:38.695Z,22.70
2018-11-22T20:31:29.078Z,20.47
2018-11-22T20:34:18.888Z,20.90
2018-11-22T20:37:08.011Z,20.90
2018-11-22T20:39:57.961Z,21.63
2018-11-22T20:42:47.782Z,19.47
2018-11-22T20:45:41.063Z,23.03
2018-11-22T20:48:26.364Z,20.70
2018-11-22T20:51:16.125Z,23.60
2018-11-22T20:54:05.950Z,23.40
2018-11-22T20:56:55.367Z,23.33
2018-11-22T20:59:44.497Z,20.27
2018-11-22T21:02:33.607Z,21.00
2018-11-22T21:05:23.136Z,21.67
2018-11-22T21:08:11.967Z,22.30
2018-11-22T21:11:00.852Z,25.17
2018-11-22T21:13:50.047Z,20.43
2018-11-22T21:16:38.941Z,22.80
2018-11-22T21:19:27.701Z,22.33
2018-11-22T21:22:16.706Z,19.60
2018-11-22T21:25:06.831Z,19.57
2018-11-22T21:27:56.166Z,20.27
2018-11-22T21:30:44.956Z,24.07
2018-11-22T21:33:34.706Z,18.80
2018-11-22T21:36:23.168Z,21.73
2018-11-22T21:39:13.425Z,19.57
2018-11-22T21:42:02.860Z,18.70
2018-11-22T21:44:51.857Z,22.77
2018-11-22T21:47:40.878Z,21.90
2018-11-22T21:50:30.079Z,20.20
2018-11-22T21:53:18.867Z,21.40
2018-11-22T21:56:07.673Z,20.80
2018-11-22T21:58:56.444Z,22.22
2018-11-22T22:01:45.679Z,20.70
2018-11-22T22:04:34.470Z,27.60
2018-11-22T22:07:23.298Z,22.20
2018-11-22T22:10:12.153Z,18.03
2018-11-22T22:13:00.952Z,18.17
2018-11-22T22:15:50.036Z,19.50
2018-11-22T22:18:39.239Z,17.93
2018-11-22T22:21:28.014Z,22.03
2018-11-22T22:24:16.805Z,19.90
2018-11-22T22:27:05.784Z,21.87
2018-11-22T22:29:54.585Z,20.10
2018-11-22T22:32:44.165Z,21.23
2018-11-22T22:35:32.970Z,20.00
2018-11-22T22:38:21.737Z,19.10
2018-11-22T22:41:10.551Z,17.40
2018-11-22T22:43:59.321Z,16.20
2018-11-22T22:46:48.440Z,17.70
2018-11-22T22:49:37.217Z,18.70
2018-11-22T22:52:26.070Z,16.73
2018-11-22T22:55:15.235Z,16.17
2018-11-22T22:58:04.009Z,19.20
2018-11-22T23:00:52.799Z,17.93
2018-11-22T23:03:41.607Z,18.30
2018-11-22T23:06:30.393Z,18.37
2018-11-22T23:09:19.151Z,17.27
2018-11-22T23:12:07.935Z,15.80
2018-11-22T23:14:56.720Z,16.10
2018-11-22T23:17:45.534Z,17.77
2018-11-22T23:20:35.487Z,18.27
2018-11-22T23:23:24.294Z,18.57
2018-11-22T23:26:13.445Z,20.40
2018-11-22T23:29:02.247Z,18.57
2018-11-22T23:31:51.331Z,21.57
2018-11-22T23:34:40.123Z,21.07
2018-11-22T23:37:28.920Z,18.87
2018-11-22T23:40:36.679Z,21.37
2018-11-22T23:43:25.881Z,20.05
2018-11-22T23:46:14.694Z,18.40
2018-11-22T23:49:03.487Z,17.77
2018-11-22T23:51:52.635Z,18.20
2018-11-22T23:54:41.712Z,16.77
2018-11-22T23:57:30.813Z,18.75
